Airport View

Enter AWOS ICAO identifier for current METAR.

ex. KFNL

KEYW 191753Z 16011KT 10SM FEW020 31/25 A3003 RMK AO2 SLP170 T03060250 10311 20283 58006

19 Jun 2019 18:57

Frequency: 119.65

Phone: 305-292-4046

Other Area AWOS: KNQX - KMTH - KMKY - MUVR

KEYW 191723Z 1918/2018 15008KT P6SM FEW020